Airfield :
LOGIN :

Register | Disclaimer

   EN    FR    IT 

 










Legend :    VFR   Marginal VFR   IFR   Intensive IFR   Very Intensive IFR
Visi :
Ceiling :
>= 8 km
>= 3000ft
5 to 8 km
1000 to 3000 ft
1500m to 5 km
500 to 1000 ft
800 to 1500m
200 to 500 ft
< 800m
< 200 ft
Symbols :   Thunderstorms  Fog  Heavy snow  Heavy precipitations  Wind > 20 kt
SIGMETs :     Misc.  Thunderstorms  Icing  Turbulence  Mountain Waves  Volcanic Ashes






- Airport Elevation : 376 ft


LHKE - Kecskemét

CURRENT METAR :
  • 161415Z 22002KT 9999 SCT033 SCT040 BKN057 M01/M07 Q1018 RESN R12/01//95 NOSIG RMK BLU

EXPIRED METARs :
  • 161345Z 22004KT 9999 -SN SCT030 SCT040 BKN057 M01/M09 Q1018 R12/01//95 BECMG NSW RMK BLU
  • 161315Z 21006KT 170V230 9999 BKN040 BKN057 M01/M10 Q1018 R12/01//95 NOSIG RMK BLU
  • 161245Z 20004KT 9999 SCT045 BKN057 M01/M09 Q1019 R12/01//95 NOSIG RMK BLU
  • 161215Z 22002KT 9999 SCT043 SCT053 SCT200 M01/M10 Q1019 R12/01//95 NOSIG RMK BLU
  • 161145Z 25004KT 9999 SCT040 M01/M09 Q1019 R12/01//95 NOSIG RMK BLU

TAF TAF LHKE
Valid from the 16 at 15:00 until the 17 at 00:00 UTC


161415Z 1615/1624 25008KT 9999 FEW040 SCT083
TEMPO 1615/1619 8000 -SN SHSN SCT025 SCT050
BECMG 1619/1622 CAVOK



MET'MAP, your aeronautical weather chart ! - Copyright ORBIFLY December 2007 - Disclaimer

ORBIFLY MET'MAP TEAM :

Programming & Development : Alexandra Zaïnal
Concept & original design : Baudouin d'Aumeries
Assistance for programming : Marc-Olivier Méhu
Technical & hardware support : Manuel Goepfert

Contact : metmap@orbifly.com




SOURCES & CREDITS :

   NOAA